Time;durP1;ratioP1;P1;durP2;ratioP2;P2;SDS_P1;SDS_P2;PMS_P1;PMS_P2;Temp;Humidity;BMP_temperature;BMP_pressure;BME280_temperature;BME280_humidity;BME280_pressure;Samples;Min_cycle;Max_cycle;Signal;HPM_P1;HPM_P2
2022/01/28 00:00:14;;;;;;;48.75;20.13;;;;;;;-1.83;90.30;99781.88;5030895;28;20316;-82
2022/01/28 00:05:17;;;;;;;45.90;20.00;;;;;;;-1.19;90.16;99879.94;5030017;28;20173;-82
2022/01/28 00:07:42;;;;;;;46.78;20.15;;;;;;;-1.21;90.22;99881.41;5030028;28;20177;-82
2022/01/28 00:10:08;;;;;;;44.73;18.37;;;;;;;-1.17;90.52;99877.59;5029788;28;20174;-81
2022/01/28 00:12:35;;;;;;;50.40;19.53;;;;;;;-1.52;90.12;99817.13;5030413;28;20293;-82
2022/01/28 00:15:11;;;;;;;50.25;21.27;;;;;;;-1.88;89.25;99744.97;5030238;28;20169;-82
2022/01/28 00:18:24;;;;;;;51.10;20.33;;;;;;;-1.12;89.51;99876.44;5029784;28;20227;-82
2022/01/28 00:39:44;;;;;;;41.65;17.63;;;;;;;-1.64;87.97;99743.94;5012272;28;20297;-82
2022/01/28 00:42:10;;;;;;;45.47;18.43;;;;;;;-2.73;88.83;99552.34;5012376;28;20172;-82
2022/01/28 00:44:35;;;;;;;41.17;16.73;;;;;;;-2.29;88.99;99639.28;5012503;28;20155;-82
2022/01/28 00:47:01;;;;;;;36.93;15.93;;;;;;;-2.37;89.82;99625.28;5012895;28;20243;-83
2022/01/28 00:49:26;;;;;;;39.53;14.73;;;;;;;-2.15;89.54;99675.34;5012516;28;20166;-82
2022/01/28 00:51:52;;;;;;;37.80;15.40;;;;;;;-1.13;89.11;99839.94;5013330;28;20190;-82
2022/01/28 00:54:18;;;;;;;38.87;15.40;;;;;;;-2.82;89.66;99554.81;5012175;28;20163;-82
2022/01/28 00:56:44;;;;;;;36.97;14.37;;;;;;;-2.15;89.65;99665.41;5010430;28;20673;-81
2022/01/28 00:59:10;;;;;;;33.47;13.75;;;;;;;-1.16;89.35;99835.53;5012139;28;20213;-84
2022/01/28 01:01:35;;;;;;;32.80;13.93;;;;;;;-1.04;88.48;99831.72;5011641;28;20163;-81
2022/01/28 01:04:01;;;;;;;38.77;16.53;;;;;;;-1.22;89.14;99830.00;5011392;28;20171;-82
2022/01/28 01:06:27;;;;;;;28.10;12.47;;;;;;;-1.64;89.64;99756.34;5011365;28;20245;-82
2022/01/28 01:08:52;;;;;;;35.75;15.95;;;;;;;-2.87;88.67;99552.59;5011443;28;20178;-81
2022/01/28 01:11:21;;;;;;;34.77;14.70;;;;;;;-1.68;88.67;99755.22;5011208;28;20199;-82
2022/01/28 01:13:47;;;;;;;35.65;13.75;;;;;;;-2.43;88.59;99622.22;5011469;28;20234;-82
2022/01/28 01:16:16;;;;;;;37.78;16.30;;;;;;;-1.29;88.14;99813.63;5011727;28;20167;-82
2022/01/28 01:18:51;;;;;;;36.40;16.55;;;;;;;-2.52;87.56;99604.84;5012166;28;20185;-82
2022/01/28 01:21:26;;;;;;;44.88;17.73;;;;;;;-2.24;87.45;99633.16;5012439;28;20526;-82
2022/01/28 01:23:56;;;;;;;38.75;16.67;;;;;;;-2.04;88.19;99660.75;5011800;28;20639;-82
2022/01/28 01:26:33;;;;;;;36.38;15.65;;;;;;;-2.60;87.05;99589.97;5011536;28;20551;-82
2022/01/28 01:29:00;;;;;;;36.55;15.85;;;;;;;-1.85;89.64;99773.44;5011222;28;20249;-82
2022/01/28 01:31:26;;;;;;;37.08;16.30;;;;;;;-2.86;89.79;99574.19;5013050;28;20206;-82
2022/01/28 01:34:02;;;;;;;45.43;17.97;;;;;;;-2.61;89.76;99620.44;5014362;28;20219;-82
2022/01/28 01:36:27;;;;;;;45.92;18.17;;;;;;;-1.92;90.56;99756.19;5015678;28;20642;-82
2022/01/28 01:38:53;;;;;;;40.03;18.10;;;;;;;-2.27;89.78;99687.41;5015266;28;20167;-82
2022/01/28 01:41:37;;;;;;;40.80;18.47;;;;;;;-1.85;90.15;99746.13;5014741;28;20158;-82
2022/01/28 01:44:21;;;;;;;39.97;16.27;;;;;;;-2.65;89.78;99633.22;5014791;28;20162;-82
2022/01/28 01:51:59;;;;;;;41.00;17.75;;;;;;;-3.83;89.86;99412.00;5014975;28;20166;-82
2022/01/28 01:52:28;;;;;;;39.85;16.98;;;;;;;-1.98;89.85;99701.00;5014808;28;20206;-82
2022/01/28 01:54:54;;;;;;;39.90;16.27;;;;;;;-2.25;88.61;99646.28;5014810;28;20167;-81
2022/01/28 01:57:20;;;;;;;38.97;16.33;;;;;;;-3.25;88.93;99473.03;5014850;28;20650;-82
2022/01/28 01:59:47;;;;;;;36.23;15.97;;;;;;;-1.99;89.67;99696.81;5018903;28;20170;-82
2022/01/28 02:02:13;;;;;;;33.97;15.18;;;;;;;-3.03;88.61;99501.63;5033540;28;20406;-82
2022/01/28 02:04:38;;;;;;;39.30;14.07;;;;;;;-1.85;88.58;99706.44;5039163;28;20186;-82
2022/01/28 02:07:05;;;;;;;32.73;13.40;;;;;;;-3.14;88.38;99484.84;5019371;28;20224;-82
2022/01/28 02:09:31;;;;;;;33.72;14.50;;;;;;;-3.91;87.67;99318.03;5041952;28;20234;-82
2022/01/28 02:11:56;;;;;;;39.37;16.10;;;;;;;-4.25;87.08;99245.56;5036105;28;20198;-82
2022/01/28 02:14:22;;;;;;;38.07;15.70;;;;;;;-1.96;86.88;99661.50;5053786;28;20295;-82
2022/01/28 02:16:47;;;;;;;27.27;12.03;;;;;;;-1.76;87.05;99670.84;5036315;28;20276;-82
2022/01/28 02:19:12;;;;;;;35.80;14.80;;;;;;;-2.61;87.19;99548.59;5053576;28;20219;-82
2022/01/28 02:21:51;;;;;;;33.97;14.70;;;;;;;-1.87;87.21;99673.16;5053716;28;20169;-82
2022/01/28 02:24:22;;;;;;;37.03;14.63;;;;;;;-2.36;86.95;99567.53;5053817;28;20161;-82
2022/01/28 02:26:48;;;;;;;34.92;14.82;;;;;;;-3.25;86.80;99396.31;5053751;28;20162;-83
2022/01/28 02:29:25;;;;;;;37.17;16.83;;;;;;;-2.86;85.72;99465.22;5053420;28;20627;-82
2022/01/28 02:31:50;;;;;;;45.92;23.38;;;;;;;-1.58;86.19;99662.63;5035482;28;20197;-82
2022/01/28 02:34:16;;;;;;;37.23;16.70;;;;;;;-3.97;86.30;99298.53;5053646;28;20221;-81
2022/01/28 02:36:41;;;;;;;39.50;16.37;;;;;;;-4.01;86.02;99270.91;5053377;28;20169;-82
2022/01/28 02:39:07;;;;;;;41.80;17.70;;;;;;;-4.07;86.21;99273.66;5053458;28;20162;-82
2022/01/28 02:41:37;;;;;;;55.47;23.23;;;;;;;-4.46;85.94;99189.13;5052959;28;20599;-81
2022/01/28 02:46:43;;;;;;;39.92;17.38;;;;;;;-1.96;86.38;99585.50;5053309;28;20222;-81
2022/01/28 02:49:10;;;;;;;35.22;14.40;;;;;;;-1.67;86.33;99620.47;5052585;28;20262;-82
2022/01/28 02:51:37;;;;;;;30.20;11.40;;;;;;;-3.40;85.48;99364.22;5053382;28;20201;-82
2022/01/28 02:54:13;;;;;;;26.67;11.23;;;;;;;-1.93;85.96;99647.78;5053681;28;20157;-82
2022/01/28 02:56:46;;;;;;;33.78;13.88;;;;;;;-3.00;86.38;99471.31;5053305;28;20676;-81
2022/01/28 02:59:11;;;;;;;35.17;12.85;;;;;;;-2.99;87.02;99473.06;5053360;28;20245;-82
2022/01/28 03:01:37;;;;;;;33.77;14.43;;;;;;;-2.34;87.19;99593.38;5053013;28;20618;-82
2022/01/28 03:04:04;;;;;;;31.80;13.77;;;;;;;-2.17;87.99;99649.53;5052916;28;20295;-82
2022/01/28 03:06:29;;;;;;;34.08;14.30;;;;;;;-3.57;87.29;99397.25;5032015;28;20653;-83
2022/01/28 03:09:01;;;;;;;35.37;14.70;;;;;;;-2.90;87.29;99512.69;5052637;28;20173;-82
2022/01/28 03:17:26;;;;;;;36.42;14.93;;;;;;;-2.77;85.99;99500.75;5052807;28;20326;-81
2022/01/28 03:19:50;;;;;;;29.23;13.48;;;;;;;-2.14;86.91;99618.44;5051386;28;20185;-82
2022/01/28 03:22:16;;;;;;;35.78;15.15;;;;;;;-1.92;86.73;99647.03;5052597;28;20165;-82
2022/01/28 03:24:42;;;;;;;35.47;14.97;;;;;;;-1.92;86.74;99644.56;5052521;28;20169;-82
2022/01/28 03:27:16;;;;;;;35.05;16.33;;;;;;;-2.62;86.48;99524.53;5053058;28;20230;-81
2022/01/28 03:29:41;;;;;;;36.78;14.30;;;;;;;-2.39;86.85;99572.22;5053089;28;20244;-82
2022/01/28 03:32:07;;;;;;;41.07;15.33;;;;;;;-1.94;87.04;99648.50;5052394;28;20300;-82
2022/01/28 03:34:33;;;;;;;39.37;15.97;;;;;;;-2.60;86.52;99535.44;5052222;28;20312;-82
2022/01/28 03:36:58;;;;;;;37.27;16.10;;;;;;;-3.82;87.25;99379.13;5053032;28;20169;-82
2022/01/28 03:39:23;;;;;;;37.87;15.17;;;;;;;-4.16;87.35;99280.19;5052882;28;20231;-82
2022/01/28 03:41:49;;;;;;;33.60;15.10;;;;;;;-2.58;87.47;99553.84;5054884;28;20211;-82
2022/01/28 03:44:15;;;;;;;37.67;15.17;;;;;;;-2.05;87.62;99636.69;5037243;28;20166;-81
2022/01/28 03:46:40;;;;;;;37.53;16.07;;;;;;;-2.05;87.38;99635.81;5054947;28;20540;-82
2022/01/28 03:49:06;;;;;;;38.87;16.03;;;;;;;-1.99;87.18;99629.84;5056231;28;20162;-80
2022/01/28 03:51:31;;;;;;;39.77;16.47;;;;;;;-2.62;87.73;99527.88;5036094;28;20197;-82
2022/01/28 03:53:57;;;;;;;36.07;15.53;;;;;;;-2.04;88.03;99627.66;5052320;28;20166;-81
2022/01/28 03:56:23;;;;;;;42.63;17.00;;;;;;;-2.06;88.00;99644.84;5052518;28;20189;-82
2022/01/28 03:58:49;;;;;;;36.53;15.65;;;;;;;-2.01;87.83;99630.41;5034688;28;20555;-81
2022/01/28 04:01:23;;;;;;;34.93;16.07;;;;;;;-2.06;88.06;99644.84;5052869;28;20166;-81
2022/01/28 04:04:15;;;;;;;37.75;16.88;;;;;;;-4.80;87.24;99129.75;5052319;28;20164;-82
2022/01/28 04:12:13;;;;;;;35.63;15.23;;;;;;;-2.02;87.32;99617.13;4990340;28;20203;-81
2022/01/28 04:15:00;;;;;;;31.60;14.60;;;;;;;-2.61;87.13;99518.84;4990505;28;20274;-82
2022/01/28 04:17:26;;;;;;;34.35;14.43;;;;;;;-1.96;86.90;99622.69;4990569;28;20187;-82
2022/01/28 04:19:52;;;;;;;43.83;18.50;;;;;;;-1.96;86.85;99654.94;4993573;28;20187;-81
2022/01/28 04:22:19;;;;;;;54.00;22.17;;;;;;;-1.94;86.89;99622.81;5016668;28;20191;-82
2022/01/28 04:24:44;;;;;;;52.60;25.05;;;;;;;-2.07;87.32;99627.34;5016539;28;20167;-82
2022/01/28 04:27:10;;;;;;;108.80;43.07;;;;;;;-3.22;87.46;99438.66;4995397;28;20191;-82
2022/01/28 04:29:35;;;;;;;118.77;47.30;;;;;;;-2.12;87.80;99633.47;4991289;28;20218;-82
2022/01/28 04:32:01;;;;;;;85.27;35.20;;;;;;;-2.15;87.73;99600.94;4991009;28;20281;-82
2022/01/28 04:34:27;;;;;;;90.13;36.67;;;;;;;-3.58;87.39;99360.88;4992164;28;20289;-82
2022/01/28 04:42:52;;;;;;;197.23;77.82;;;;;;;-2.68;87.92;99566.03;4933821;29;20181;-82
2022/01/28 04:48:06;;;;;;;72.33;30.50;;;;;;;-3.10;88.18;99495.88;4939258;28;20187;-81
2022/01/28 05:27:27;;;;;;;116.93;44.35;;;;;;;-3.17;90.45;99548.91;5016686;28;20163;-81
2022/01/28 05:29:53;;;;;;;106.53;39.38;;;;;;;-4.30;91.33;99364.41;5015056;28;20173;-81
2022/01/28 05:32:18;;;;;;;153.90;55.23;;;;;;;-3.75;92.36;99459.75;5015792;28;20194;-81
2022/01/28 05:34:44;;;;;;;148.67;51.67;;;;;;;-3.83;92.41;99460.59;5014987;28;20215;-81
2022/01/28 05:37:10;;;;;;;92.38;35.30;;;;;;;-4.47;92.33;99355.31;5014942;28;20163;-81
2022/01/28 05:39:36;;;;;;;106.03;38.77;;;;;;;-3.96;92.30;99458.50;5015034;28;20167;-83
2022/01/28 05:42:02;;;;;;;87.23;34.83;;;;;;;-3.21;92.65;99583.94;5014951;28;20627;-82
2022/01/28 05:44:28;;;;;;;109.72;41.15;;;;;;;-3.92;92.06;99481.91;5013856;28;20179;-82
2022/01/28 05:46:56;;;;;;;122.83;47.00;;;;;;;-3.23;91.95;99580.47;4997364;28;20178;-82
2022/01/28 05:49:22;;;;;;;108.30;43.08;;;;;;;-4.61;92.58;99358.00;5015144;28;20623;-82
2022/01/28 05:51:48;;;;;;;134.30;53.60;;;;;;;-4.05;92.95;99444.34;5014849;28;20195;-82
2022/01/28 05:54:13;;;;;;;128.27;50.03;;;;;;;-4.29;92.77;99383.47;4997994;28;20257;-83
2022/01/28 05:56:39;;;;;;;106.37;42.57;;;;;;;-4.71;92.00;99292.72;5015177;28;20193;-82
2022/01/28 05:59:04;;;;;;;126.47;47.63;;;;;;;-4.26;92.26;99386.25;5014779;28;20171;-82
2022/01/28 06:01:30;;;;;;;187.27;77.10;;;;;;;-3.92;92.58;99447.31;5015359;28;20213;-82
2022/01/28 06:03:55;;;;;;;171.93;69.13;;;;;;;-4.51;92.41;99340.94;5015271;28;20569;-81
2022/01/28 06:06:23;;;;;;;190.80;74.67;;;;;;;-3.50;93.51;99523.28;4997508;28;20587;-82
2022/01/28 06:08:51;;;;;;;333.40;123.95;;;;;;;-3.81;93.35;99469.91;4997651;28;20174;-82
2022/01/28 06:11:17;;;;;;;291.35;112.07;;;;;;;-3.05;93.79;99597.13;5018405;28;20214;-83
2022/01/28 06:13:43;;;;;;;281.20;107.55;;;;;;;-5.62;93.44;99156.09;5006750;28;20171;-81
2022/01/28 06:16:13;;;;;;;262.77;96.07;;;;;;;-3.97;93.41;99421.25;5016357;28;20186;-81
2022/01/28 06:18:39;;;;;;;194.88;75.45;;;;;;;-2.73;92.62;99641.53;5016410;28;20163;-83
2022/01/28 06:21:05;;;;;;;160.00;63.40;;;;;;;-2.78;92.20;99603.94;5000712;28;20654;-82
2022/01/28 06:23:32;;;;;;;238.73;108.37;;;;;;;-6.90;91.02;98892.66;5016010;28;20666;-83
2022/01/28 06:25:57;;;;;;;209.48;89.55;;;;;;;-2.72;91.24;99619.38;4996050;28;20465;-81
2022/01/28 06:28:22;;;;;;;206.60;84.53;;;;;;;-5.79;90.53;99071.31;5029399;28;20186;-82
2022/01/28 06:30:48;;;;;;;215.27;83.20;;;;;;;-2.59;90.91;99616.50;5012998;28;20639;-82
2022/01/28 06:33:14;;;;;;;257.03;95.90;;;;;;;-2.49;90.44;99605.16;5024564;28;20185;-80
2022/01/28 06:35:41;;;;;;;327.05;112.43;;;;;;;-2.76;90.09;99557.88;5034112;28;20182;-82
2022/01/28 06:38:06;;;;;;;386.50;136.27;;;;;;;-3.12;89.44;99513.09;5017602;28;20241;-81
2022/01/28 06:40:32;;;;;;;499.87;203.07;;;;;;;-2.35;89.19;99593.19;5013173;28;20664;-80
2022/01/28 06:42:57;;;;;;;644.47;287.10;;;;;;;-2.94;88.95;99481.81;5013126;28;20178;-81
2022/01/28 06:45:23;;;;;;;632.77;284.67;;;;;;;-2.65;88.45;99547.41;5011266;28;20195;-81
2022/01/28 06:47:48;;;;;;;511.47;212.37;;;;;;;-2.97;87.63;99427.06;5018306;28;20216;-81
2022/01/28 06:50:14;;;;;;;463.07;183.77;;;;;;;-2.23;86.97;99535.78;5014309;28;20185;-83
2022/01/28 06:52:42;;;;;;;437.10;166.33;;;;;;;-2.34;86.01;99459.53;5009721;28;20214;-82
2022/01/28 06:55:08;;;;;;;512.55;209.30;;;;;;;-1.21;85.21;99625.63;5012638;28;20249;-82
2022/01/28 06:57:33;;;;;;;561.67;241.70;;;;;;;-1.04;83.40;99610.66;5010792;28;20198;-81
2022/01/28 06:59:59;;;;;;;480.23;176.33;;;;;;;-4.07;84.42;99145.16;5018993;28;20201;-82
2022/01/28 07:02:25;;;;;;;246.40;86.33;;;;;;;-1.81;83.96;99519.94;5030998;28;20525;-83
2022/01/28 07:04:50;;;;;;;182.73;65.40;;;;;;;-0.69;82.48;99606.41;5012553;28;20191;-82
2022/01/28 07:07:17;;;;;;;388.33;152.43;;;;;;;-3.23;81.42;99154.78;5011561;28;20209;-82
2022/01/28 07:09:42;;;;;;;209.40;78.50;;;;;;;-3.16;79.35;99126.53;5012042;28;20258;-82
2022/01/28 07:12:08;;;;;;;215.23;82.23;;;;;;;-1.85;78.40;99294.66;5017147;28;20302;-81
2022/01/28 07:14:33;;;;;;;198.73;80.03;;;;;;;0.10;77.48;99611.84;5017137;28;20253;-82
2022/01/28 07:16:59;;;;;;;145.57;59.07;;;;;;;-1.79;75.21;99215.81;5018955;28;20193;-82
2022/01/28 07:19:24;;;;;;;178.73;72.93;;;;;;;-0.72;73.71;99335.25;5013515;28;20229;-81
2022/01/28 07:21:50;;;;;;;230.83;101.30;;;;;;;0.91;72.44;99585.63;5009721;28;20182;-82
2022/01/28 07:24:16;;;;;;;322.90;125.20;;;;;;;0.87;71.31;99495.56;5016349;28;20202;-81
2022/01/28 07:26:42;;;;;;;442.13;171.20;;;;;;;1.76;69.65;99576.09;5021228;28;20183;-82
2022/01/28 07:29:10;;;;;;;374.30;119.63;;;;;;;0.03;67.24;99242.94;5002763;28;20262;-82
2022/01/28 07:31:37;;;;;;;213.90;84.13;;;;;;;2.24;66.03;99570.75;5012198;28;20242;-82
2022/01/28 07:34:02;;;;;;;194.63;69.80;;;;;;;1.87;64.55;99464.63;5012239;28;20489;-82
2022/01/28 07:36:28;;;;;;;190.80;70.30;;;;;;;2.41;63.78;99550.44;5012618;28;20944;-82
2022/01/28 07:38:53;;;;;;;113.27;44.13;;;;;;;2.16;63.99;99526.81;4995870;28;20187;-83
2022/01/28 07:41:19;;;;;;;122.37;45.93;;;;;;;-0.83;64.50;99060.16;5010755;28;20278;-83
2022/01/28 07:43:47;;;;;;;97.00;40.60;;;;;;;2.07;66.07;99579.41;5010278;28;20226;-80
2022/01/28 07:46:13;;;;;;;176.07;62.83;;;;;;;1.31;67.05;99454.31;5010739;28;20248;-81
2022/01/28 07:48:39;;;;;;;374.10;127.17;;;;;;;2.08;67.92;99580.28;5012709;28;20842;-82
2022/01/28 07:51:04;;;;;;;400.30;133.87;;;;;;;0.51;67.82;99284.22;5011818;28;20560;-80
2022/01/28 07:53:29;;;;;;;435.67;152.27;;;;;;;1.98;67.55;99502.94;5012774;28;20249;-81
2022/01/28 07:55:55;;;;;;;339.70;115.33;;;;;;;2.77;67.64;99567.41;5013744;28;20617;-81
2022/01/28 07:58:20;;;;;;;295.03;102.30;;;;;;;2.88;66.21;99524.94;5013167;28;20163;-81
2022/01/28 08:00:46;;;;;;;183.87;71.97;;;;;;;2.26;64.95;99395.28;5018224;28;20657;-81
2022/01/28 08:03:12;;;;;;;148.13;56.90;;;;;;;3.38;64.87;99570.34;5009072;28;20190;-82
2022/01/28 08:05:37;;;;;;;138.07;53.37;;;;;;;2.03;64.33;99346.88;4998933;28;20635;-83
2022/01/28 08:08:05;;;;;;;113.43;46.73;;;;;;;2.28;63.79;99360.47;4995397;28;20441;-82
2022/01/28 08:10:32;;;;;;;81.17;35.77;;;;;;;1.97;62.86;99284.00;5027450;28;20197;-85
2022/01/28 08:13:00;;;;;;;154.30;53.73;;;;;;;0.25;62.71;98980.09;5032099;28;20456;-84
2022/01/28 08:15:26;;;;;;;67.63;30.60;;;;;;;2.32;62.31;99337.44;5008667;28;20486;-81
2022/01/28 08:17:51;;;;;;;84.07;34.27;;;;;;;3.70;62.75;99546.06;5011340;28;20502;-82
2022/01/28 08:20:17;;;;;;;97.93;39.63;;;;;;;3.43;64.64;99566.56;5018534;28;20181;-82
2022/01/28 08:22:50;;;;;;;148.03;51.97;;;;;;;1.36;63.49;99181.25;5032231;28;20174;-83
2022/01/28 08:25:17;;;;;;;117.90;45.53;;;;;;;3.50;64.95;99554.63;5024846;28;20181;-81
2022/01/28 08:27:44;;;;;;;97.63;44.53;;;;;;;3.71;65.04;99552.78;4993643;28;20436;-82
2022/01/28 08:30:14;;;;;;;75.87;33.93;;;;;;;3.72;64.04;99544.53;5011701;28;20413;-82
2022/01/28 08:32:40;;;;;;;70.87;32.20;;;;;;;2.91;64.14;99420.16;5011547;28;20460;-82
2022/01/28 08:35:06;;;;;;;91.90;38.20;;;;;;;2.47;64.05;99322.72;5011183;28;20472;-82
2022/01/28 08:37:32;;;;;;;83.37;33.10;;;;;;;1.93;63.68;99225.50;4987285;28;20228;-82
2022/01/28 08:39:59;;;;;;;74.67;32.43;;;;;;;2.53;63.86;99353.16;5007650;28;20453;-82
2022/01/28 08:42:24;;;;;;;58.37;26.13;;;;;;;3.15;65.15;99502.75;5012298;28;20233;-82
2022/01/28 08:44:50;;;;;;;34.40;13.60;;;;;;;1.21;66.15;99210.88;5015880;28;20414;-82
2022/01/28 08:47:15;;;;;;;49.03;23.73;;;;;;;2.77;66.90;99514.91;5015053;28;20190;-86
2022/01/28 08:49:40;;;;;;;54.10;22.60;;;;;;;3.22;67.12;99552.47;5002490;28;20175;-82
2022/01/28 08:52:06;;;;;;;50.30;24.13;;;;;;;2.97;66.60;99537.25;4999273;28;20701;-82
2022/01/28 08:54:32;;;;;;;58.87;26.70;;;;;;;3.25;66.63;99567.69;5015193;28;20556;-84
2022/01/28 08:56:57;;;;;;;74.93;31.93;;;;;;;1.85;65.84;99290.56;5016182;28;20178;-80
2022/01/28 08:59:22;;;;;;;88.57;33.47;;;;;;;1.01;65.13;99141.19;5016199;28;20217;-82
2022/01/28 09:01:48;;;;;;;129.27;43.10;;;;;;;3.35;64.32;99508.44;5015766;28;20241;-83
2022/01/28 09:04:13;;;;;;;106.67;44.43;;;;;;;3.97;63.10;99567.19;5005695;28;20192;-81
2022/01/28 09:06:39;;;;;;;133.73;54.70;;;;;;;3.47;63.35;99431.78;5017983;28;20672;-82
2022/01/28 09:09:04;;;;;;;80.50;37.30;;;;;;;4.35;62.37;99532.31;5022835;28;20194;-82
2022/01/28 09:11:47;;;;;;;83.40;37.67;;;;;;;4.55;61.07;99522.03;5034904;28;20206;-82
2022/01/28 09:14:14;;;;;;;96.27;43.47;;;;;;;4.20;60.37;99459.50;5032911;28;20241;-82
2022/01/28 09:16:40;;;;;;;114.27;53.33;;;;;;;4.91;60.00;99519.53;5015066;28;20421;-84
2022/01/28 09:19:06;;;;;;;114.13;53.93;;;;;;;4.27;59.15;99373.06;5015915;28;20405;-83
2022/01/28 09:21:32;;;;;;;90.03;42.33;;;;;;;2.95;59.63;99157.16;5013546;28;20440;-82
2022/01/28 09:23:57;;;;;;;76.37;36.00;;;;;;;5.17;59.42;99509.59;5012181;28;20442;-83
2022/01/28 09:26:23;;;;;;;131.10;37.07;;;;;;;4.97;59.09;99462.22;5017710;28;20210;-82
2022/01/28 09:28:48;;;;;;;112.67;36.87;;;;;;;4.29;57.19;99274.69;5031182;28;20235;-83
2022/01/28 09:31:14;;;;;;;104.70;41.33;;;;;;;4.40;55.14;99203.59;5022565;28;20299;-82
2022/01/28 09:33:39;;;;;;;100.73;41.40;;;;;;;5.70;52.86;99307.16;5007038;28;20356;-82
2022/01/28 09:36:07;;;;;;;129.37;50.80;;;;;;;6.23;51.53;99373.25;5016516;28;20175;-82
2022/01/28 09:38:33;;;;;;;53.77;20.67;;;;;;;5.94;48.39;99291.06;5012224;28;20187;-82
2022/01/28 09:41:04;;;;;;;25.47;10.17;;;;;;;7.30;45.52;99475.97;4998427;28;20425;-82
2022/01/28 09:43:30;;;;;;;10.80;5.70;;;;;;;6.94;43.16;99311.16;5014777;28;20421;-82
2022/01/28 09:45:56;;;;;;;17.13;8.60;;;;;;;7.47;41.52;99377.06;4997742;28;20425;-80
2022/01/28 09:48:22;;;;;;;50.57;16.90;;;;;;;7.38;41.34;99319.50;5006372;28;20642;-82
2022/01/28 09:50:48;;;;;;;28.73;11.03;;;;;;;8.29;40.64;99471.50;5025583;28;20216;-81
2022/01/28 09:53:14;;;;;;;18.33;8.40;;;;;;;8.12;40.68;99461.28;5007811;28;20258;-82
2022/01/28 09:55:40;;;;;;;57.93;24.23;;;;;;;7.29;40.44;99298.84;5013455;28;20646;-82
2022/01/28 09:58:05;;;;;;;13.40;6.17;;;;;;;7.12;39.58;99270.25;5018375;28;20177;-82
2022/01/28 10:00:33;;;;;;;11.90;5.33;;;;;;;8.43;39.94;99464.72;5019947;28;20260;-81
2022/01/28 10:03:05;;;;;;;16.30;8.10;;;;;;;6.54;38.83;99102.66;5014823;28;20220;-83
2022/01/28 10:05:38;;;;;;;12.30;5.93;;;;;;;9.09;37.90;99452.13;5005318;28;20183;-83
2022/01/28 10:08:09;;;;;;;12.07;6.13;;;;;;;9.18;37.86;99446.66;5022537;28;20207;-82
2022/01/28 10:11:05;;;;;;;10.27;6.40;;;;;;;9.78;37.00;99456.38;5021307;28;20677;-82
2022/01/28 10:13:43;;;;;;;16.80;8.47;;;;;;;9.42;36.96;99374.63;4957352;28;20727;-83
2022/01/28 10:16:20;;;;;;;20.00;11.40;;;;;;;8.95;36.46;99288.16;4972098;28;20206;-82
2022/01/28 10:18:59;;;;;;;16.77;8.73;;;;;;;9.43;36.90;99379.75;4967054;28;20204;-82
2022/01/28 10:21:45;;;;;;;9.90;5.60;;;;;;;9.16;37.45;99324.50;4974359;28;20580;-83
2022/01/28 10:24:24;;;;;;;12.13;6.20;;;;;;;10.06;37.19;99434.97;4980370;28;20191;-83
2022/01/28 10:27:06;;;;;;;20.53;12.27;;;;;;;10.26;35.55;99430.84;4971056;28;20595;-83
2022/01/28 10:29:36;;;;;;;18.07;8.63;;;;;;;10.42;34.42;99437.47;4972830;28;20247;-81
2022/01/28 10:32:04;;;;;;;14.07;7.13;;;;;;;10.50;34.89;99429.41;4973128;28;20214;-81
2022/01/28 10:34:47;;;;;;;9.37;4.47;;;;;;;10.52;34.11;99432.88;4972994;28;20282;-80
2022/01/28 10:37:18;;;;;;;9.60;3.90;;;;;;;10.62;34.12;99432.50;4972428;28;20199;-83
2022/01/28 10:39:49;;;;;;;9.63;4.47;;;;;;;10.79;34.26;99418.03;4957458;28;20283;-82
2022/01/28 10:42:31;;;;;;;9.07;4.87;;;;;;;10.83;34.79;99422.41;4958007;28;20185;-81
2022/01/28 10:45:15;;;;;;;10.37;5.20;;;;;;;10.51;34.23;99384.72;4972661;28;20287;-84
2022/01/28 10:47:45;;;;;;;8.43;3.90;;;;;;;9.75;34.15;99249.78;4970838;28;20192;-81
2022/01/28 10:50:24;;;;;;;9.07;4.37;;;;;;;10.85;34.38;99404.78;4975365;28;20187;-81
2022/01/28 10:53:12;;;;;;;7.00;3.97;;;;;;;10.81;34.42;99413.03;5013794;28;20255;-83
2022/01/28 10:55:45;;;;;;;6.73;4.17;;;;;;;10.52;34.67;99384.78;5022530;28;20609;-81
2022/01/28 10:58:16;;;;;;;13.87;6.43;;;;;;;9.81;34.85;99308.22;5014392;28;20281;-82
2022/01/28 11:00:44;;;;;;;8.83;5.03;;;;;;;10.58;35.08;99423.03;5049464;28;20174;-81
2022/01/28 11:03:12;;;;;;;10.43;5.43;;;;;;;9.32;34.98;99155.19;5052870;28;20215;-82
2022/01/28 11:05:38;;;;;;;10.33;6.63;;;;;;;10.68;35.50;99434.44;5030658;28;20220;-82
2022/01/28 11:08:06;;;;;;;17.10;7.17;;;;;;;10.40;35.38;99373.25;5037060;28;20186;-84
2022/01/28 11:10:31;;;;;;;16.43;8.17;;;;;;;10.56;36.00;99381.59;5045705;28;20246;-81
2022/01/28 11:12:58;;;;;;;10.37;5.03;;;;;;;9.99;35.25;99239.91;5052891;28;20193;-82
2022/01/28 11:15:24;;;;;;;10.57;5.97;;;;;;;10.57;34.92;99289.69;5033318;28;20585;-81
2022/01/28 11:17:51;;;;;;;10.47;6.10;;;;;;;11.42;35.09;99444.31;5028270;28;20215;-82
2022/01/28 11:20:21;;;;;;;15.73;6.67;;;;;;;10.30;35.13;99257.28;5031992;28;20162;-82
2022/01/28 11:23:05;;;;;;;12.53;7.37;;;;;;;11.41;35.39;99438.38;5049244;28;20189;-82
2022/01/28 11:25:39;;;;;;;11.90;6.13;;;;;;;11.47;34.88;99442.81;5035881;28;20174;-82
2022/01/28 11:28:10;;;;;;;11.43;6.00;;;;;;;11.35;34.50;99401.75;5032572;28;20179;-82
2022/01/28 11:30:47;;;;;;;8.07;4.60;;;;;;;11.49;34.52;99437.00;5032016;28;20215;-85
2022/01/28 11:33:15;;;;;;;13.13;6.80;;;;;;;11.29;34.77;99409.16;5039959;28;20208;-82
2022/01/28 11:35:41;;;;;;;18.57;7.47;;;;;;;11.63;34.97;99435.91;5028429;28;20555;-82
2022/01/28 11:38:26;;;;;;;8.07;4.50;;;;;;;11.51;34.68;99411.75;5036647;28;20174;-82
2022/01/28 11:40:56;;;;;;;10.50;5.30;;;;;;;9.44;35.00;99090.06;5031900;28;20211;-82
2022/01/28 11:43:24;;;;;;;9.07;4.97;;;;;;;11.35;34.59;99377.28;5032258;28;20162;-81
2022/01/28 11:46:22;;;;;;;13.27;6.20;;;;;;;11.67;34.66;99420.00;5031804;28;20627;-81
2022/01/28 11:48:57;;;;;;;22.97;8.87;;;;;;;11.74;35.01;99428.75;5031468;28;20174;-82
2022/01/28 11:51:24;;;;;;;14.10;8.03;;;;;;;10.62;34.96;99236.69;5013623;28;20929;-82
2022/01/28 11:54:10;;;;;;;16.83;7.60;;;;;;;11.48;35.43;99368.53;5031928;28;20162;-82
2022/01/28 11:57:01;;;;;;;12.63;6.47;;;;;;;10.76;35.16;99249.91;5031842;28;20166;-82
2022/01/28 11:59:28;;;;;;;6.13;3.60;;;;;;;12.04;34.24;99417.25;5014625;28;20170;-81
2022/01/28 12:01:53;;;;;;;9.80;4.10;;;;;;;12.13;34.33;99434.50;5032641;28;20159;-82
2022/01/28 12:04:29;;;;;;;13.37;5.00;;;;;;;12.40;34.50;99431.31;5020135;28;20226;-81
2022/01/28 12:07:05;;;;;;;17.27;6.63;;;;;;;12.49;34.54;99430.78;5009480;28;20279;-81
2022/01/28 12:09:32;;;;;;;11.00;5.33;;;;;;;12.56;34.53;99424.25;5012086;28;20198;-82
2022/01/28 12:11:59;;;;;;;13.23;6.23;;;;;;;10.55;34.34;99105.63;5017622;28;20751;-82
2022/01/28 12:14:49;;;;;;;10.63;6.27;;;;;;;12.65;34.97;99430.53;5024723;28;20178;-82
2022/01/28 12:17:34;;;;;;;6.27;3.43;;;;;;;11.96;35.16;99425.38;5011689;28;20536;-82
2022/01/28 12:20:15;;;;;;;6.10;2.87;;;;;;;11.69;35.82;99428.56;5014197;28;20253;-82
2022/01/28 12:22:59;;;;;;;6.60;3.30;;;;;;;11.47;36.38;99425.97;5024900;28;20613;-82
2022/01/28 12:25:36;;;;;;;5.80;3.37;;;;;;;11.36;36.17;99433.94;5016972;28;20189;-83
2022/01/28 12:28:20;;;;;;;6.27;3.47;;;;;;;11.38;36.66;99420.50;5011633;28;20291;-81
2022/01/28 12:31:00;;;;;;;8.43;4.67;;;;;;;11.20;37.17;99433.31;5004927;28;20182;-82
2022/01/28 12:33:28;;;;;;;24.47;8.83;;;;;;;11.17;37.50;99419.63;5009947;28;20324;-82
2022/01/28 12:35:56;;;;;;;9.37;5.63;;;;;;;11.25;37.80;99439.44;5010066;28;20183;-83
2022/01/28 12:38:24;;;;;;;10.40;5.37;;;;;;;8.95;38.08;99061.81;5007047;28;20186;-82
2022/01/28 12:40:53;;;;;;;6.97;3.23;;;;;;;11.05;37.58;99421.66;5024696;28;20213;-81
2022/01/28 12:43:22;;;;;;;5.23;3.50;;;;;;;10.90;38.18;99436.22;5026201;28;20631;-81
2022/01/28 12:46:01;;;;;;;8.33;5.13;;;;;;;10.99;38.41;99428.97;5011347;28;20170;-83
2022/01/28 12:48:27;;;;;;;13.70;6.93;;;;;;;11.18;38.28;99432.34;5012234;28;20280;-84
2022/01/28 12:50:54;;;;;;;12.47;8.77;;;;;;;11.16;37.92;99403.56;5010771;28;20253;-81